Time;durP1;ratioP1;P1;durP2;ratioP2;P2;SDS_P1;SDS_P2;PMS_P1;PMS_P2;Temp;Humidity;BMP_temperature;BMP_pressure;BME280_temperature;BME280_humidity;BME280_pressure;Samples;Min_cycle;Max_cycle;Signal;HPM_P1;HPM_P2
2022/06/30 00:02:22;;;;;;;;;;;;;;;23.88;48.59;100587.13;5076226;28;1943;-42
2022/06/30 00:04:48;;;;;;;;;;;;;;;24.13;47.82;100578.25;5076199;28;1020;-39
2022/06/30 00:07:13;;;;;;;;;;;;;;;24.42;50.04;100574.25;5073364;28;886;-43
2022/06/30 00:09:40;;;;;;;;;;;;;;;23.25;49.06;100576.66;5074573;28;1103;-41
2022/06/30 00:12:06;;;;;;;;;;;;;;;23.60;49.86;100574.81;5076421;28;1087;-40
2022/06/30 00:14:32;;;;;;;;;;;;;;;23.74;51.83;100569.78;5074897;28;1226;-42
2022/06/30 00:16:57;;;;;;;;;;;;;;;24.42;47.21;100568.88;5069616;28;815;-42
2022/06/30 00:19:22;;;;;;;;;;;;;;;24.33;47.76;100581.47;5061558;28;996;-41
2022/06/30 00:21:48;;;;;;;;;;;;;;;24.97;46.28;100579.06;5063919;28;958;-41
2022/06/30 00:24:13;;;;;;;;;;;;;;;23.81;47.44;100573.50;5069814;28;1956;-41
2022/06/30 00:26:38;;;;;;;;;;;;;;;23.54;50.02;100572.75;5068714;28;1048;-40
2022/06/30 00:29:03;;;;;;;;;;;;;;;23.97;50.28;100567.31;5072401;28;1040;-43
2022/06/30 00:31:29;;;;;;;;;;;;;;;24.33;46.86;100568.03;5069915;28;1256;-42
2022/06/30 00:33:54;;;;;;;;;;;;;;;24.16;48.91;100568.03;5073409;28;1087;-41
2022/06/30 00:36:19;;;;;;;;;;;;;;;24.87;44.75;100563.94;5067608;28;1382;-40
2022/06/30 00:38:44;;;;;;;;;;;;;;;24.14;45.40;100571.88;5074433;28;1040;-41
2022/06/30 00:41:10;;;;;;;;;;;;;;;23.51;48.72;100578.47;5075774;28;1244;-41
2022/06/30 00:43:45;;;;;;;;;;;;;;;23.98;46.77;100565.47;5069299;28;1996;-41
2022/06/30 00:46:10;;;;;;;;;;;;;;;24.22;46.36;100579.97;5064940;28;850;-43
2022/06/30 00:48:36;;;;;;;;;;;;;;;24.21;49.17;100576.44;5065081;28;1222;-43
2022/06/30 00:51:02;;;;;;;;;;;;;;;24.80;43.96;100571.84;5072324;28;976;-39
2022/06/30 00:53:28;;;;;;;;;;;;;;;24.48;43.71;100572.72;5072046;28;1147;-43
2022/06/30 00:55:53;;;;;;;;;;;;;;;23.56;48.30;100572.59;5054620;28;985;-42
2022/06/30 00:58:18;;;;;;;;;;;;;;;24.00;46.41;100573.38;5056089;28;1092;-42
2022/06/30 01:00:44;;;;;;;;;;;;;;;24.02;47.22;100571.38;5056013;28;989;-41
2022/06/30 01:03:09;;;;;;;;;;;;;;;24.37;48.48;100576.59;5056195;28;1905;-40
2022/06/30 01:05:35;;;;;;;;;;;;;;;24.66;45.53;100578.75;5072783;28;1226;-40
2022/06/30 01:08:00;;;;;;;;;;;;;;;24.37;47.47;100576.59;5076045;28;981;-41
2022/06/30 01:13:09;;;;;;;;;;;;;;;23.75;47.76;100576.84;5075433;28;906;-42
2022/06/30 01:15:35;;;;;;;;;;;;;;;23.92;47.72;100579.56;5074729;28;1016;-41
2022/06/30 01:18:00;;;;;;;;;;;;;;;24.61;46.42;100581.13;5074578;28;1048;-40
2022/06/30 01:20:26;;;;;;;;;;;;;;;24.58;44.66;100586.84;5064909;28;996;-43
2022/06/30 01:22:51;;;;;;;;;;;;;;;24.38;47.97;100575.59;5073932;28;1902;-42
2022/06/30 01:25:17;;;;;;;;;;;;;;;23.44;47.68;100580.94;5069805;28;1025;-41
2022/06/30 01:27:42;;;;;;;;;;;;;;;23.73;46.43;100581.56;5071112;28;969;-41
2022/06/30 01:30:08;;;;;;;;;;;;;;;23.63;48.90;100583.53;5075484;28;969;-40
2022/06/30 01:32:33;;;;;;;;;;;;;;;24.48;44.01;100578.09;5075628;28;980;-41
2022/06/30 01:34:59;;;;;;;;;;;;;;;24.39;44.93;100575.41;5073112;28;1224;-43
2022/06/30 01:37:25;;;;;;;;;;;;;;;24.58;46.78;100574.25;5071420;28;1008;-41
2022/06/30 01:39:50;;;;;;;;;;;;;;;24.78;43.30;100567.63;5074718;28;1127;-41
2022/06/30 01:42:15;;;;;;;;;;;;;;;24.41;45.50;100576.09;5074883;28;1917;-42
2022/06/30 01:44:41;;;;;;;;;;;;;;;23.44;48.52;100580.94;5074932;28;1139;-42
2022/06/30 01:47:06;;;;;;;;;;;;;;;23.75;46.01;100578.69;5075006;28;985;-41
2022/06/30 01:49:31;;;;;;;;;;;;;;;23.83;46.71;100586.78;5066781;28;922;-42
2022/06/30 01:51:56;;;;;;;;;;;;;;;24.54;44.04;100580.97;5072723;28;1123;-43
2022/06/30 01:54:22;;;;;;;;;;;;;;;24.45;44.63;100584.69;5078507;28;1411;-41
2022/06/30 01:56:47;;;;;;;;;;;;;;;24.26;47.43;100584.00;5075471;28;1155;-39
2022/06/30 01:59:13;;;;;;;;;;;;;;;24.80;43.32;100584.47;5078406;28;1028;-42
2022/06/30 02:01:38;;;;;;;;;;;;;;;24.35;45.42;100574.09;5072132;28;1048;-41
2022/06/30 02:06:47;;;;;;;;;;;;;;;23.94;45.89;100577.56;5077992;28;972;-41
2022/06/30 02:09:13;;;;;;;;;;;;;;;23.96;46.04;100580.91;5078650;28;1179;-42
2022/06/30 02:11:38;;;;;;;;;;;;;;;24.14;47.78;100582.63;5075764;28;1000;-42
2022/06/30 02:14:04;;;;;;;;;;;;;;;24.55;44.44;100577.28;5073477;28;1199;-40
2022/06/30 02:16:29;;;;;;;;;;;;;;;24.27;45.57;100585.69;5077149;28;1095;-41
2022/06/30 02:18:54;;;;;;;;;;;;;;;24.97;42.39;100582.59;5077797;28;1088;-40
2022/06/30 02:21:19;;;;;;;;;;;;;;;23.91;44.77;100581.41;5068504;28;1123;-43
2022/06/30 02:23:45;;;;;;;;;;;;;;;23.47;47.15;100586.00;5071233;28;1949;-41
2022/06/30 02:26:10;;;;;;;;;;;;;;;24.04;45.35;100585.47;5072210;28;1039;-41
2022/06/30 02:28:35;;;;;;;;;;;;;;;24.16;45.47;100588.66;5078031;28;1040;-42
2022/06/30 02:31:01;;;;;;;;;;;;;;;24.04;47.96;100594.34;5077010;28;1024;-41
2022/06/30 02:33:26;;;;;;;;;;;;;;;24.69;42.94;100588.34;5072900;28;1076;-42
2022/06/30 02:35:51;;;;;;;;;;;;;;;24.36;43.09;100591.88;5072789;28;1051;-42
2022/06/30 02:38:16;;;;;;;;;;;;;;;23.34;47.72;100594.47;5076045;28;1143;-41
2022/06/30 02:40:42;;;;;;;;;;;;;;;23.82;45.56;100595.84;5072872;28;857;-43
2022/06/30 02:43:07;;;;;;;;;;;;;;;23.85;45.63;100599.06;5077073;28;1909;-43
2022/06/30 02:45:32;;;;;;;;;;;;;;;24.28;46.58;100594.56;5077497;28;1064;-41
2022/06/30 02:47:59;;;;;;;;;;;;;;;24.50;43.00;100593.06;5070185;28;953;-42
2022/06/30 02:50:24;;;;;;;;;;;;;;;24.19;45.46;100591.06;5066869;28;1076;-42
2022/06/30 02:52:49;;;;;;;;;;;;;;;24.74;40.44;100595.91;5077373;28;861;-43
2022/06/30 02:55:15;;;;;;;;;;;;;;;24.30;41.20;100584.50;5077615;28;1206;-43
2022/06/30 02:57:40;;;;;;;;;;;;;;;24.27;45.34;100593.75;5074161;28;1028;-42
2022/06/30 03:00:06;;;;;;;;;;;;;;;24.62;40.98;100588.19;5066752;28;1472;-42
2022/06/30 03:02:32;;;;;;;;;;;;;;;24.20;42.82;100584.69;5068259;28;1897;-43
2022/06/30 03:04:57;;;;;;;;;;;;;;;24.68;41.22;100578.59;5074081;28;1052;-41
2022/06/30 03:07:22;;;;;;;;;;;;;;;24.46;42.34;100583.66;5070579;28;1179;-42
2022/06/30 03:09:47;;;;;;;;;;;;;;;23.36;45.31;100468.16;5070643;28;973;-43
2022/06/30 03:12:13;;;;;;;;;;;;;;;24.50;41.07;100595.75;5068332;28;941;-41
2022/06/30 03:14:38;;;;;;;;;;;;;;;24.22;42.41;100590.72;5070515;28;1054;-41
2022/06/30 03:17:04;;;;;;;;;;;;;;;24.74;40.74;100591.34;5072187;28;1064;-41
2022/06/30 03:19:29;;;;;;;;;;;;;;;24.55;41.03;100584.50;5073991;28;972;-41
2022/06/30 03:21:54;;;;;;;;;;;;;;;24.11;44.31;100586.47;5072230;28;992;-41
2022/06/30 03:24:20;;;;;;;;;;;;;;;24.61;40.33;100585.69;5075170;28;1955;-40
2022/06/30 03:26:46;;;;;;;;;;;;;;;24.51;41.24;100580.44;5068031;28;1008;-41
2022/06/30 03:29:11;;;;;;;;;;;;;;;24.79;42.02;100580.91;5072423;28;988;-38
2022/06/30 03:31:37;;;;;;;;;;;;;;;24.08;44.06;100579.59;5074927;28;1179;-41
2022/06/30 03:34:02;;;;;;;;;;;;;;;23.66;45.46;100580.50;5073208;28;1154;-42
2022/06/30 03:36:28;;;;;;;;;;;;;;;24.01;44.66;100586.63;5066386;28;1123;-41
2022/06/30 03:38:53;;;;;;;;;;;;;;;24.13;42.75;100579.09;5076652;28;1079;-42
2022/06/30 03:41:18;;;;;;;;;;;;;;;24.68;41.39;100579.44;5075137;28;1222;-39
2022/06/30 03:43:44;;;;;;;;;;;;;;;24.73;41.22;100580.75;5070752;28;1906;-40
2022/06/30 03:46:09;;;;;;;;;;;;;;;24.85;41.01;100586.63;5076604;28;1072;-41
2022/06/30 03:48:35;;;;;;;;;;;;;;;24.89;40.54;100583.41;5076599;28;969;-39
2022/06/30 03:51:01;;;;;;;;;;;;;;;24.87;40.56;100585.47;5075166;28;1076;-42
2022/06/30 03:53:27;;;;;;;;;;;;;;;24.97;39.62;100579.91;5071655;28;960;-38
2022/06/30 03:55:52;;;;;;;;;;;;;;;24.87;39.55;100582.78;5072823;28;1025;-43
2022/06/30 03:58:17;;;;;;;;;;;;;;;24.65;41.10;100585.16;5056715;28;1462;-39
2022/06/30 04:00:42;;;;;;;;;;;;;;;24.79;42.75;100589.00;5074232;28;1544;-40
2022/06/30 04:03:08;;;;;;;;;;;;;;;24.58;45.65;100585.00;5070207;28;1902;-35
2022/06/30 04:05:33;;;;;;;;;;;;;;;24.67;45.40;100585.00;5074618;28;1204;-36
2022/06/30 04:07:58;;;;;;;;;;;;;;;24.79;45.39;100588.16;5075938;28;997;-36
2022/06/30 04:10:24;;;;;;;;;;;;;;;24.46;47.26;100594.41;5075780;28;1299;-39
2022/06/30 04:12:49;;;;;;;;;;;;;;;25.12;44.45;100601.56;5075711;28;1210;-37
2022/06/30 04:15:14;;;;;;;;;;;;;;;24.62;43.69;100600.78;5075852;28;1023;-38
2022/06/30 04:17:40;;;;;;;;;;;;;;;24.20;47.42;100604.34;5076305;28;953;-38
2022/06/30 04:20:06;;;;;;;;;;;;;;;24.72;43.39;100597.91;5076668;28;1033;-39
2022/06/30 04:22:31;;;;;;;;;;;;;;;24.54;44.13;100590.91;5072349;28;1952;-37
2022/06/30 04:24:56;;;;;;;;;;;;;;;23.64;48.22;100586.06;5076123;28;945;-36
2022/06/30 04:27:22;;;;;;;;;;;;;;;24.41;46.01;100578.78;5076136;28;954;-38
2022/06/30 04:29:47;;;;;;;;;;;;;;;24.71;46.33;100594.38;5075772;28;1163;-39
2022/06/30 04:34:56;;;;;;;;;;;;;;;24.72;47.22;100606.00;5074996;28;1012;-35
2022/06/30 04:37:22;;;;;;;;;;;;;;;24.32;46.57;100602.13;5072750;28;910;-41
2022/06/30 04:39:47;;;;;;;;;;;;;;;23.78;50.27;100615.97;5075996;28;941;-39
2022/06/30 04:42:12;;;;;;;;;;;;;;;24.49;45.54;100612.06;5075898;28;1160;-39
2022/06/30 04:44:37;;;;;;;;;;;;;;;24.61;46.04;100609.88;5075962;28;1913;-39
2022/06/30 04:47:03;;;;;;;;;;;;;;;24.40;49.46;100609.38;5071516;28;985;-37
2022/06/30 04:49:28;;;;;;;;;;;;;;;23.77;50.56;100611.63;5056867;28;1299;-39
2022/06/30 04:51:54;;;;;;;;;;;;;;;24.29;46.75;100610.53;5071819;28;1000;-38
2022/06/30 04:54:19;;;;;;;;;;;;;;;24.41;46.50;100616.44;5076065;28;1489;-35
2022/06/30 04:56:44;;;;;;;;;;;;;;;24.89;43.48;100614.88;5075864;28;1150;-38
2022/06/30 04:59:09;;;;;;;;;;;;;;;23.91;45.64;100615.50;5074875;28;1045;-38
2022/06/30 05:01:35;;;;;;;;;;;;;;;23.64;46.75;100637.06;5075909;28;1032;-38
2022/06/30 05:04:00;;;;;;;;;;;;;;;24.25;46.78;100619.97;5071938;28;1973;-38
2022/06/30 05:06:25;;;;;;;;;;;;;;;24.77;43.07;100617.94;5072586;28;1457;-39
2022/06/30 05:08:51;;;;;;;;;;;;;;;24.58;45.85;100619.97;5070182;28;1129;-37
2022/06/30 05:11:16;;;;;;;;;;;;;;;23.34;49.48;100617.78;5073910;28;1188;-36
2022/06/30 05:13:41;;;;;;;;;;;;;;;24.18;43.77;100625.16;5074881;28;1540;-38
2022/06/30 05:16:06;;;;;;;;;;;;;;;24.36;44.21;100626.03;5074682;28;1175;-33
2022/06/30 05:18:32;;;;;;;;;;;;;;;25.19;41.83;100631.34;5073314;28;986;-38
2022/06/30 05:20:57;;;;;;;;;;;;;;;23.80;44.56;100628.25;5069838;28;836;-38
2022/06/30 05:23:22;;;;;;;;;;;;;;;23.73;45.94;100637.94;5074957;28;1959;-37
2022/06/30 05:28:31;;;;;;;;;;;;;;;23.14;45.74;100628.75;5078836;28;930;-36
2022/06/30 05:30:57;;;;;;;;;;;;;;;23.90;45.11;100643.38;5079343;28;1222;-38
2022/06/30 05:33:22;;;;;;;;;;;;;;;24.43;45.78;100637.75;5077272;28;1228;-37
2022/06/30 05:35:48;;;;;;;;;;;;;;;23.13;46.68;100643.19;5073388;28;1208;-35
2022/06/30 05:38:14;;;;;;;;;;;;;;;24.03;44.68;100650.94;5074540;28;1035;-38
2022/06/30 05:40:39;;;;;;;;;;;;;;;24.44;45.83;100644.84;5079041;28;1171;-35
2022/06/30 05:43:04;;;;;;;;;;;;;;;23.34;48.50;100647.31;5078990;28;1906;-38
2022/06/30 05:45:29;;;;;;;;;;;;;;;24.37;43.17;100649.19;5078930;28;1222;-37
2022/06/30 05:47:55;;;;;;;;;;;;;;;24.58;42.63;100644.16;5078869;28;1055;-38
2022/06/30 05:50:20;;;;;;;;;;;;;;;23.36;46.86;100645.31;5075010;28;1100;-35
2022/06/30 05:52:46;;;;;;;;;;;;;;;24.49;42.84;100644.34;5078959;28;981;-37
2022/06/30 05:55:12;;;;;;;;;;;;;;;23.70;44.22;100649.88;5077600;28;1218;-36
2022/06/30 05:57:48;;;;;;;;;;;;;;;23.88;45.12;100656.97;5076819;28;1298;-35
2022/06/30 06:00:13;;;;;;;;;;;;;;;24.67;44.82;100657.63;5075532;28;1048;-39
2022/06/30 06:02:39;;;;;;;;;;;;;;;23.11;47.16;100647.84;5057283;28;1898;-41
2022/06/30 06:05:04;;;;;;;;;;;;;;;24.15;43.63;100649.66;5072451;28;984;-42
2022/06/30 06:07:30;;;;;;;;;;;;;;;24.79;44.79;100650.03;5077375;28;972;-35
2022/06/30 06:09:55;;;;;;;;;;;;;;;22.78;47.94;100643.13;5078044;28;960;-38
2022/06/30 06:12:22;;;;;;;;;;;;;;;23.96;44.64;100656.13;5079076;28;973;-41
2022/06/30 06:14:47;;;;;;;;;;;;;;;24.74;44.40;100655.09;5078141;28;957;-39
2022/06/30 06:17:12;;;;;;;;;;;;;;;23.06;48.90;100648.34;5078094;28;888;-37
2022/06/30 06:19:37;;;;;;;;;;;;;;;24.42;42.92;100660.28;5078182;28;1163;-39
2022/06/30 06:22:03;;;;;;;;;;;;;;;23.66;43.96;100658.38;5074159;28;1184;-40
2022/06/30 06:24:28;;;;;;;;;;;;;;;23.92;44.76;100661.00;5077728;28;1913;-40
2022/06/30 06:26:53;;;;;;;;;;;;;;;24.87;41.86;100651.88;5077953;28;1024;-40
2022/06/30 06:29:19;;;;;;;;;;;;;;;23.09;48.00;100656.06;5076323;28;1235;-39
2022/06/30 06:31:44;;;;;;;;;;;;;;;24.31;42.81;100661.44;5076123;28;1330;-40
2022/06/30 06:34:10;;;;;;;;;;;;;;;24.90;42.40;100655.09;5074270;28;1188;-39
2022/06/30 06:36:35;;;;;;;;;;;;;;;23.09;49.02;100660.59;5065167;28;1468;-38
2022/06/30 06:39:01;;;;;;;;;;;;;;;24.56;42.64;100656.09;5073464;28;1285;-39
2022/06/30 06:41:26;;;;;;;;;;;;;;;22.92;47.97;100647.06;5074124;28;1417;-40
2022/06/30 06:43:51;;;;;;;;;;;;;;;24.23;43.70;100642.63;5077724;28;1981;-40
2022/06/30 06:46:17;;;;;;;;;;;;;;;23.97;43.25;100641.72;5077554;28;1083;-39
2022/06/30 06:48:42;;;;;;;;;;;;;;;23.98;44.24;100646.06;5077926;28;1049;-39
2022/06/30 06:51:07;;;;;;;;;;;;;;;24.28;42.23;100643.81;5075935;28;1067;-41
2022/06/30 06:53:33;;;;;;;;;;;;;;;23.71;45.22;100648.84;5074011;28;1191;-39
2022/06/30 06:55:58;;;;;;;;;;;;;;;24.55;42.58;100640.97;5066208;28;1204;-40
2022/06/30 06:58:24;;;;;;;;;;;;;;;23.02;49.42;100646.13;5076937;28;1172;-40
2022/06/30 07:00:49;;;;;;;;;;;;;;;24.51;42.45;100640.47;5076378;28;1561;-40
2022/06/30 07:03:14;;;;;;;;;;;;;;;23.11;48.71;100643.34;5077402;28;1909;-40
2022/06/30 07:05:40;;;;;;;;;;;;;;;24.56;43.12;100648.00;5075369;28;986;-37
2022/06/30 07:08:05;;;;;;;;;;;;;;;23.09;46.73;100645.34;5077181;28;950;-33
2022/06/30 07:10:30;;;;;;;;;;;;;;;24.23;43.75;100642.63;5077877;28;941;-35
2022/06/30 07:12:55;;;;;;;;;;;;;;;23.29;45.02;100637.06;5077202;28;1001;-37
2022/06/30 07:15:24;;;;;;;;;;;;;;;23.95;44.48;100636.50;5076868;28;1036;-35
2022/06/30 07:17:49;;;;;;;;;;;;;;;23.68;44.23;100646.50;5076948;28;1108;-35
2022/06/30 07:20:14;;;;;;;;;;;;;;;23.77;44.60;100643.84;5076763;28;906;-35
2022/06/30 07:22:40;;;;;;;;;;;;;;;24.45;42.57;100649.19;5075567;28;1897;-32
2022/06/30 07:25:05;;;;;;;;;;;;;;;23.44;47.03;100640.00;5076327;28;967;-36
2022/06/30 07:27:30;;;;;;;;;;;;;;;24.85;42.52;100649.34;5075953;28;1520;-36
2022/06/30 07:29:56;;;;;;;;;;;;;;;23.04;49.38;100641.47;5076690;28;1311;-38
2022/06/30 07:32:21;;;;;;;;;;;;;;;24.39;43.27;100649.88;5074076;28;1180;-36
2022/06/30 07:34:46;;;;;;;;;;;;;;;23.01;46.48;100645.28;5075337;28;1477;-35
2022/06/30 07:37:12;;;;;;;;;;;;;;;24.21;43.68;100648.16;5055496;28;1237;-34
2022/06/30 07:39:37;;;;;;;;;;;;;;;23.54;45.03;100650.63;5075479;28;1307;-35
2022/06/30 07:42:02;;;;;;;;;;;;;;;23.63;45.77;100648.81;5075500;28;1237;-35
2022/06/30 07:44:27;;;;;;;;;;;;;;;24.62;42.91;100644.69;5075642;28;1977;-37
2022/06/30 07:46:53;;;;;;;;;;;;;;;22.84;50.46;100642.50;5074790;28;1350;-36
2022/06/30 07:49:18;;;;;;;;;;;;;;;24.53;43.39;100641.13;5074768;28;1556;-38
2022/06/30 07:51:43;;;;;;;;;;;;;;;22.91;46.57;100634.66;5072855;28;1219;-38
2022/06/30 07:54:09;;;;;;;;;;;;;;;23.99;44.57;100631.63;5075132;28;1183;-37
2022/06/30 07:56:34;;;;;;;;;;;;;;;23.83;44.68;100643.19;5076279;28;962;-36
2022/06/30 07:59:00;;;;;;;;;;;;;;;23.33;47.79;100634.91;5075634;28;859;-34
2022/06/30 08:01:25;;;;;;;;;;;;;;;24.80;42.92;100638.25;5076375;28;1179;-34
2022/06/30 08:03:50;;;;;;;;;;;;;;;22.96;49.63;100634.19;5075956;28;1885;-36
2022/06/30 08:06:16;;;;;;;;;;;;;;;24.53;44.06;100637.59;5074013;28;1068;-35
2022/06/30 08:08:41;;;;;;;;;;;;;;;23.12;46.27;100642.34;5076397;28;1101;-37
2022/06/30 08:11:06;;;;;;;;;;;;;;;23.89;45.54;100647.91;5073351;28;890;-36
2022/06/30 08:13:31;;;;;;;;;;;;;;;24.15;43.88;100638.03;5076165;28;1183;-37
2022/06/30 08:15:57;;;;;;;;;;;;;;;23.21;48.86;100645.06;5075880;28;889;-33
2022/06/30 08:18:22;;;;;;;;;;;;;;;24.73;43.59;100634.56;5076108;28;993;-34
2022/06/30 08:20:48;;;;;;;;;;;;;;;22.77;47.20;100632.56;5075802;28;977;-35
2022/06/30 08:23:13;;;;;;;;;;;;;;;24.03;44.49;100634.84;5072935;28;1893;-35
2022/06/30 08:25:39;;;;;;;;;;;;;;;24.24;46.30;100647.00;5075889;28;1021;-32
2022/06/30 08:28:05;;;;;;;;;;;;;;;25.10;42.61;100646.66;5079688;28;977;-33
2022/06/30 08:30:30;;;;;;;;;;;;;;;25.68;41.00;100645.63;5073595;28;1185;-35
2022/06/30 08:32:56;;;;;;;;;;;;;;;24.61;45.80;100644.84;5073666;28;1088;-36
2022/06/30 08:35:21;;;;;;;;;;;;;;;25.54;41.95;100642.63;5073958;28;1607;-34
2022/06/30 08:37:47;;;;;;;;;;;;;;;24.37;45.79;100650.06;5072399;28;1039;-36
2022/06/30 08:42:56;;;;;;;;;;;;;;;24.58;43.95;100648.69;5075585;28;1963;-37
2022/06/30 08:45:21;;;;;;;;;;;;;;;24.97;43.61;100641.81;5074155;28;1251;-37
2022/06/30 08:47:47;;;;;;;;;;;;;;;24.58;44.00;100646.84;5054276;28;1322;-37
2022/06/30 08:50:13;;;;;;;;;;;;;;;25.10;43.57;100643.09;5070110;28;1180;-36
2022/06/30 08:52:55;;;;;;;;;;;;;;;24.53;44.26;100646.53;5074472;28;1322;-37
2022/06/30 08:55:26;;;;;;;;;;;;;;;25.31;42.68;100651.47;5074570;28;1233;-39
2022/06/30 08:57:54;;;;;;;;;;;;;;;24.49;46.22;100642.47;5075968;28;1020;-36
2022/06/30 09:00:20;;;;;;;;;;;;;;;25.42;42.61;100642.16;5071730;28;1215;-39
2022/06/30 09:02:46;;;;;;;;;;;;;;;25.10;43.60;100645.81;5077456;28;1961;-36
2022/06/30 09:05:12;;;;;;;;;;;;;;;25.97;41.64;100644.16;5076524;28;1303;-36
2022/06/30 09:07:38;;;;;;;;;;;;;;;26.44;40.03;100635.25;5078508;28;1316;-37
2022/06/30 09:10:03;;;;;;;;;;;;;;;26.62;40.13;100637.63;5078962;28;1240;-37
2022/06/30 09:12:28;;;;;;;;;;;;;;;26.79;39.65;100646.41;5079209;28;1406;-36
2022/06/30 09:14:54;;;;;;;;;;;;;;;26.96;39.42;100638.97;5061050;28;1421;-36
2022/06/30 09:17:20;;;;;;;;;;;;;;;26.93;39.47;100633.09;5079507;28;1446;-36
2022/06/30 09:19:51;;;;;;;;;;;;;;;26.92;39.66;100634.97;5078004;28;1167;-37
2022/06/30 09:22:16;;;;;;;;;;;;;;;27.04;39.01;100634.53;5076147;28;1310;-37
2022/06/30 09:24:42;;;;;;;;;;;;;;;27.14;39.21;100637.81;5078090;28;1902;-36
2022/06/30 09:27:16;;;;;;;;;;;;;;;27.14;39.50;100635.13;5071233;28;1107;-37
2022/06/30 09:30:02;;;;;;;;;;;;;;;27.16;39.02;100635.75;5077077;28;1279;-38
2022/06/30 09:32:27;;;;;;;;;;;;;;;27.16;38.68;100634.94;5077686;28;1239;-37
2022/06/30 09:34:53;;;;;;;;;;;;;;;27.25;38.64;100634.66;5076105;28;1544;-36
2022/06/30 09:37:22;;;;;;;;;;;;;;;27.33;38.28;100635.56;5076190;28;1164;-38
2022/06/30 09:39:47;;;;;;;;;;;;;;;27.30;39.13;100636.78;5079080;28;812;-35
2022/06/30 09:42:13;;;;;;;;;;;;;;;27.29;39.46;100645.06;5078930;28;1176;-37
2022/06/30 09:44:38;;;;;;;;;;;;;;;27.41;38.42;100637.34;5078985;28;1973;-39
2022/06/30 09:47:06;;;;;;;;;;;;;;;27.47;38.38;100636.59;5076693;28;1282;-34
2022/06/30 09:49:41;;;;;;;;;;;;;;;27.42;38.07;100634.44;5078698;28;1136;-34
2022/06/30 09:52:23;;;;;;;;;;;;;;;27.42;38.76;100630.91;5072257;28;1143;-36
2022/06/30 09:54:51;;;;;;;;;;;;;;;27.51;38.54;100633.31;5074306;28;1243;-36
2022/06/30 09:57:17;;;;;;;;;;;;;;;27.47;38.79;100631.19;5078349;28;1390;-37
2022/06/30 09:59:42;;;;;;;;;;;;;;;27.52;38.82;100631.44;5078495;28;920;-40
2022/06/30 10:02:09;;;;;;;;;;;;;;;27.57;38.65;100634.44;5078822;28;1152;-38
2022/06/30 10:04:53;;;;;;;;;;;;;;;27.54;38.91;100628.56;5071243;28;1953;-41
2022/06/30 10:07:19;;;;;;;;;;;;;;;27.52;38.85;100628.75;5076069;28;967;-37
2022/06/30 10:09:45;;;;;;;;;;;;;;;27.52;38.90;100626.06;5059491;28;1257;-40
2022/06/30 10:12:10;;;;;;;;;;;;;;;27.55;38.76;100622.97;5056436;28;1486;-41
2022/06/30 10:14:37;;;;;;;;;;;;;;;27.53;38.71;100624.19;5074413;28;1183;-38
2022/06/30 10:17:05;;;;;;;;;;;;;;;27.55;38.87;100620.25;5056879;28;1235;-37
2022/06/30 10:19:30;;;;;;;;;;;;;;;27.74;38.37;100618.03;5068646;28;1176;-40
2022/06/30 10:21:56;;;;;;;;;;;;;;;27.69;38.57;100621.31;5056733;28;1200;-40
2022/06/30 10:24:21;;;;;;;;;;;;;;;27.68;39.05;100625.00;5078088;28;1894;-39
2022/06/30 10:29:31;;;;;;;;;;;;;;;27.62;39.14;100613.09;5073283;28;1041;-36
2022/06/30 10:32:05;;;;;;;;;;;;;;;27.61;38.51;100608.69;5055523;28;1252;-38
2022/06/30 10:34:35;;;;;;;;;;;;;;;27.74;37.97;100615.31;5059248;28;1216;-39
2022/06/30 10:37:03;;;;;;;;;;;;;;;27.67;38.41;100609.81;5073209;28;1179;-38
2022/06/30 10:39:37;;;;;;;;;;;;;;;27.63;38.86;100611.19;5059834;28;1156;-38
2022/06/30 10:42:02;;;;;;;;;;;;;;;27.67;38.67;100615.22;5059518;28;1165;-39
2022/06/30 10:44:29;;;;;;;;;;;;;;;27.69;38.90;100604.25;5075997;28;1981;-40
2022/06/30 10:46:57;;;;;;;;;;;;;;;27.75;38.32;100603.47;5060164;28;985;-37
2022/06/30 10:49:26;;;;;;;;;;;;;;;27.70;38.67;100595.09;5076409;28;1243;-38
2022/06/30 10:51:54;;;;;;;;;;;;;;;27.73;38.69;100592.00;5054557;28;1365;-40
2022/06/30 10:54:30;;;;;;;;;;;;;;;27.74;39.16;100594.53;5078019;28;984;-39
2022/06/30 10:56:55;;;;;;;;;;;;;;;27.75;38.63;100598.91;5073668;28;1211;-35
2022/06/30 10:59:36;;;;;;;;;;;;;;;27.69;38.88;100585.31;5076132;28;1175;-40
2022/06/30 11:02:08;;;;;;;;;;;;;;;27.82;38.66;100604.41;5075762;28;1497;-40
2022/06/30 11:04:37;;;;;;;;;;;;;;;27.81;39.06;100594.59;5069723;28;1898;-39
2022/06/30 11:07:11;;;;;;;;;;;;;;;27.77;38.39;100592.47;5071740;28;1084;-38
2022/06/30 11:09:59;;;;;;;;;;;;;;;27.84;38.69;100591.50;5069121;28;1164;-39
2022/06/30 11:12:38;;;;;;;;;;;;;;;27.85;38.10;100581.53;5060557;28;1825;-40
2022/06/30 11:15:04;;;;;;;;;;;;;;;27.77;39.23;100590.63;5074970;28;1104;-36
2022/06/30 11:17:30;;;;;;;;;;;;;;;27.90;38.79;100592.63;5074940;28;1310;-38
2022/06/30 11:20:02;;;;;;;;;;;;;;;27.88;38.47;100583.84;5073790;28;1279;-40
2022/06/30 11:22:28;;;;;;;;;;;;;;;27.85;38.80;100593.19;5069864;28;1177;-40
2022/06/30 11:24:53;;;;;;;;;;;;;;;27.89;38.41;100582.00;5058236;28;1898;-39
2022/06/30 11:27:19;;;;;;;;;;;;;;;27.89;38.03;100590.94;5058586;28;1502;-36
2022/06/30 11:29:47;;;;;;;;;;;;;;;27.81;37.82;100589.19;5058582;28;978;-38
2022/06/30 11:32:12;;;;;;;;;;;;;;;27.93;38.21;100581.41;5076878;28;1005;-36
2022/06/30 11:34:40;;;;;;;;;;;;;;;27.84;37.68;100585.28;5076061;28;869;-37
2022/06/30 11:37:06;;;;;;;;;;;;;;;27.82;38.24;100585.47;5072775;28;1141;-36
2022/06/30 11:39:31;;;;;;;;;;;;;;;27.81;38.00;100583.78;5075191;28;1274;-37
2022/06/30 11:42:06;;;;;;;;;;;;;;;27.89;38.40;100585.53;5075780;28;1205;-38
2022/06/30 11:44:32;;;;;;;;;;;;;;;27.80;37.64;100589.38;5076364;28;1972;-37
2022/06/30 11:47:01;;;;;;;;;;;;;;;27.89;37.57;100582.84;5076054;28;854;-40
2022/06/30 11:49:28;;;;;;;;;;;;;;;27.87;37.93;100574.94;5076847;28;1007;-34
2022/06/30 11:51:54;;;;;;;;;;;;;;;27.94;38.47;100574.16;5048191;28;1348;-33
2022/06/30 11:54:23;;;;;;;;;;;;;;;27.92;37.66;100565.38;5076399;28;1124;-37
2022/06/30 11:56:52;;;;;;;;;;;;;;;28.12;37.93;100571.00;5074655;28;1203;-39
2022/06/30 11:59:17;;;;;;;;;;;;;;;27.94;38.03;100566.88;5073412;28;1396;-36
2022/06/30 12:01:57;;;;;;;;;;;;;;;28.01;37.94;100563.41;5075266;28;1156;-34
2022/06/30 12:04:22;;;;;;;;;;;;;;;28.01;37.88;100560.69;5076337;28;1972;-38
2022/06/30 12:06:47;;;;;;;;;;;;;;;27.94;38.42;100556.06;5074307;28;928;-38
2022/06/30 12:09:13;;;;;;;;;;;;;;;28.00;38.21;100559.84;5075891;28;938;-36
2022/06/30 12:11:38;;;;;;;;;;;;;;;27.97;38.11;100550.28;5074926;28;1174;-39
2022/06/30 12:14:03;;;;;;;;;;;;;;;27.92;38.24;100550.00;5075874;28;1052;-39
2022/06/30 12:16:29;;;;;;;;;;;;;;;27.98;38.00;100551.94;5076364;28;1183;-38
2022/06/30 12:18:54;;;;;;;;;;;;;;;27.99;38.29;100550.88;5074454;28;1179;-38
2022/06/30 12:21:19;;;;;;;;;;;;;;;27.98;38.14;100545.69;5072166;28;1292;-37
2022/06/30 12:23:45;;;;;;;;;;;;;;;28.02;38.54;100540.72;5074092;28;1898;-36
2022/06/30 12:26:10;;;;;;;;;;;;;;;27.99;37.91;100537.38;5074333;28;1303;-37
2022/06/30 12:28:51;;;;;;;;;;;;;;;28.16;38.12;100530.88;5057828;28;1196;-38
2022/06/30 12:31:23;;;;;;;;;;;;;;;28.04;38.22;100526.00;5070117;28;1229;-36
2022/06/30 12:33:48;;;;;;;;;;;;;;;28.02;38.63;100527.22;5074001;28;1373;-35
2022/06/30 12:36:14;;;;;;;;;;;;;;;28.01;38.68;100525.53;5050739;28;1498;-36
2022/06/30 12:38:39;;;;;;;;;;;;;;;28.11;38.11;100529.56;5069943;28;1288;-35
2022/06/30 12:41:08;;;;;;;;;;;;;;;28.02;38.40;100529.91;5074781;28;1315;-37
2022/06/30 12:43:41;;;;;;;;;;;;;;;28.15;37.98;100524.63;5075053;28;1976;-40
2022/06/30 12:46:09;;;;;;;;;;;;;;;28.19;38.31;100519.66;5072899;28;1020;-37
2022/06/30 12:48:43;;;;;;;;;;;;;;;28.19;37.84;100527.78;5076277;28;950;-37
2022/06/30 12:51:12;;;;;;;;;;;;;;;28.17;38.37;100530.69;5067815;28;798;-36
2022/06/30 12:53:39;;;;;;;;;;;;;;;28.27;37.48;100529.50;5076234;28;1036;-37
2022/06/30 12:56:08;;;;;;;;;;;;;;;28.18;38.49;100542.31;5076272;28;1214;-38
2022/06/30 12:58:46;;;;;;;;;;;;;;;28.22;37.38;100541.75;5075980;28;1000;-36
2022/06/30 13:01:13;;;;;;;;;;;;;;;28.15;38.54;100543.53;5075605;28;1241;-37